createdAt,value
2022-07-31T00:01:47.228Z,5.40
2022-07-31T00:04:14.335Z,4.00
2022-07-31T00:06:41.427Z,4.30
2022-07-31T00:09:08.163Z,4.30
2022-07-31T00:11:55.376Z,4.30
2022-07-31T00:14:22.152Z,3.90
2022-07-31T00:16:49.070Z,3.90
2022-07-31T00:19:17.522Z,4.30
2022-07-31T00:21:44.375Z,4.30
2022-07-31T00:24:11.148Z,4.20
2022-07-31T00:26:38.151Z,4.60
2022-07-31T00:29:04.869Z,3.40
2022-07-31T00:31:31.638Z,3.50
2022-07-31T00:34:01.514Z,3.40
2022-07-31T00:36:30.108Z,3.70
2022-07-31T00:38:59.495Z,3.80
2022-07-31T00:41:26.278Z,3.70
2022-07-31T00:43:53.198Z,4.00
2022-07-31T00:46:20.016Z,3.90
2022-07-31T00:48:50.009Z,4.00
2022-07-31T00:51:16.848Z,3.70
2022-07-31T00:53:43.642Z,3.70
2022-07-31T00:56:10.495Z,3.80
2022-07-31T00:58:37.301Z,3.90
2022-07-31T01:01:04.186Z,3.60
2022-07-31T01:03:31.194Z,3.40
2022-07-31T01:05:58.024Z,3.90
2022-07-31T01:08:24.826Z,3.90
2022-07-31T01:11:11.372Z,3.80
2022-07-31T01:13:49.049Z,3.70
2022-07-31T01:16:15.888Z,3.20
2022-07-31T01:18:42.720Z,3.20
2022-07-31T01:21:11.970Z,3.40
2022-07-31T01:23:54.895Z,3.70
2022-07-31T01:26:48.453Z,3.40
2022-07-31T01:29:29.016Z,3.40
2022-07-31T01:32:03.114Z,3.10
2022-07-31T01:34:42.070Z,3.30
2022-07-31T01:37:14.678Z,3.00
2022-07-31T01:40:03.521Z,2.70
2022-07-31T01:42:30.630Z,2.90
2022-07-31T01:44:59.617Z,2.80
2022-07-31T01:47:27.780Z,2.80
2022-07-31T01:49:54.819Z,2.90
2022-07-31T01:52:22.717Z,3.40
2022-07-31T01:54:49.728Z,3.10
2022-07-31T01:57:18.698Z,2.90
2022-07-31T01:59:49.705Z,3.20
2022-07-31T02:02:42.270Z,2.70
2022-07-31T02:05:10.455Z,2.80
2022-07-31T02:07:37.918Z,2.90
2022-07-31T02:10:05.423Z,2.80
2022-07-31T02:12:34.117Z,2.60
2022-07-31T02:15:06.826Z,2.70
2022-07-31T02:17:34.543Z,2.30
2022-07-31T02:20:19.786Z,2.60
2022-07-31T02:22:48.337Z,2.20
2022-07-31T02:25:15.661Z,2.60
2022-07-31T02:27:57.941Z,2.40
2022-07-31T02:30:38.819Z,2.60
2022-07-31T02:33:09.253Z,2.40
2022-07-31T02:35:36.094Z,2.90
2022-07-31T02:38:02.834Z,3.30
2022-07-31T02:40:29.670Z,2.80
2022-07-31T02:42:56.497Z,2.70
2022-07-31T02:45:23.417Z,2.90
2022-07-31T02:47:50.302Z,3.20
2022-07-31T02:50:20.245Z,3.10
2022-07-31T02:52:47.867Z,2.90
2022-07-31T02:55:14.668Z,2.80
2022-07-31T02:57:44.508Z,2.80
2022-07-31T03:00:23.094Z,2.70
2022-07-31T03:02:51.090Z,3.00
2022-07-31T03:05:18.150Z,2.40
2022-07-31T03:07:46.103Z,3.00
2022-07-31T03:10:16.203Z,2.90
2022-07-31T03:12:55.145Z,2.60
2022-07-31T03:15:24.212Z,2.50
2022-07-31T03:17:51.267Z,2.20
2022-07-31T03:20:22.369Z,2.50
2022-07-31T03:22:49.194Z,2.80
2022-07-31T03:25:21.576Z,2.40
2022-07-31T03:27:55.524Z,2.40
2022-07-31T03:30:26.833Z,2.40
2022-07-31T03:32:55.854Z,2.60
2022-07-31T03:35:24.142Z,2.20
2022-07-31T03:37:51.481Z,2.40
2022-07-31T03:40:18.311Z,3.00
2022-07-31T03:42:45.328Z,2.10
2022-07-31T03:45:12.082Z,2.30
2022-07-31T03:47:39.328Z,3.00
2022-07-31T03:50:06.716Z,2.00
2022-07-31T03:52:33.570Z,2.40
2022-07-31T03:55:00.839Z,2.80
2022-07-31T03:57:29.046Z,1.70
2022-07-31T03:59:58.412Z,2.20
2022-07-31T04:02:27.669Z,2.10
2022-07-31T04:05:08.155Z,2.10
2022-07-31T04:07:36.858Z,2.10
2022-07-31T04:10:03.756Z,2.00
2022-07-31T04:12:30.633Z,2.30
2022-07-31T04:14:57.470Z,2.30
2022-07-31T04:17:24.237Z,2.10
2022-07-31T04:19:51.793Z,2.50
2022-07-31T04:22:18.675Z,2.10
2022-07-31T04:24:45.812Z,2.50
2022-07-31T04:27:48.717Z,1.90
2022-07-31T04:30:16.226Z,2.30
2022-07-31T04:32:44.033Z,1.90
2022-07-31T04:35:13.763Z,2.00
2022-07-31T04:37:40.871Z,1.70
2022-07-31T04:40:16.055Z,1.90
2022-07-31T04:42:43.025Z,1.80
2022-07-31T04:45:10.395Z,2.20
2022-07-31T04:47:38.230Z,1.60
2022-07-31T04:50:05.564Z,1.90
2022-07-31T04:52:32.862Z,1.80
2022-07-31T04:55:04.617Z,1.80
2022-07-31T04:57:31.899Z,2.40
2022-07-31T05:00:00.981Z,1.80
2022-07-31T05:02:31.500Z,1.90
2022-07-31T05:04:58.363Z,2.30
2022-07-31T05:07:31.327Z,2.20
2022-07-31T05:10:00.414Z,1.90
2022-07-31T05:12:27.230Z,1.70
2022-07-31T05:14:54.689Z,1.70
2022-07-31T05:17:21.655Z,2.60
2022-07-31T05:20:00.504Z,2.10
2022-07-31T05:22:50.437Z,2.30
2022-07-31T05:25:33.161Z,2.40
2022-07-31T05:27:59.906Z,2.30
2022-07-31T05:30:30.146Z,2.30
2022-07-31T05:32:58.555Z,2.60
2022-07-31T05:35:25.772Z,2.60
2022-07-31T05:37:52.743Z,2.40
2022-07-31T05:40:27.050Z,2.60
2022-07-31T05:43:32.253Z,2.70
2022-07-31T05:46:09.323Z,2.10
2022-07-31T05:48:36.293Z,2.10
2022-07-31T05:51:05.609Z,2.10
2022-07-31T05:53:32.691Z,2.30
2022-07-31T05:56:18.245Z,2.40
2022-07-31T05:58:49.421Z,2.00
2022-07-31T06:01:16.616Z,2.40
2022-07-31T06:03:52.456Z,2.40
2022-07-31T06:06:26.359Z,1.90
2022-07-31T06:08:53.243Z,2.90
2022-07-31T06:11:20.432Z,2.90
2022-07-31T06:13:47.263Z,2.40
2022-07-31T06:16:25.474Z,2.50
2022-07-31T06:18:52.561Z,2.70
2022-07-31T06:23:45.239Z,2.50
2022-07-31T06:26:34.843Z,2.60
2022-07-31T06:29:01.859Z,2.10
2022-07-31T06:31:28.669Z,2.00
2022-07-31T06:33:56.600Z,2.40
2022-07-31T06:36:25.992Z,2.00
2022-07-31T06:38:57.325Z,2.60
2022-07-31T06:41:45.164Z,2.20
2022-07-31T06:44:31.107Z,2.50
2022-07-31T06:47:21.408Z,2.20
2022-07-31T06:50:20.564Z,2.20
2022-07-31T06:53:07.593Z,2.60
2022-07-31T06:55:35.324Z,2.40
2022-07-31T06:58:02.077Z,2.80
2022-07-31T07:00:29.363Z,2.80
2022-07-31T07:02:56.569Z,2.90
2022-07-31T07:05:23.415Z,3.10
2022-07-31T07:07:52.257Z,2.70
2022-07-31T07:10:19.132Z,2.70
2022-07-31T07:12:57.834Z,3.20
2022-07-31T07:15:24.762Z,2.60
2022-07-31T07:17:51.798Z,2.80
2022-07-31T07:20:28.829Z,2.20
2022-07-31T07:22:55.818Z,2.40
2022-07-31T07:25:51.527Z,2.50
2022-07-31T07:28:30.383Z,2.30
2022-07-31T07:30:58.721Z,2.30
2022-07-31T07:33:41.710Z,2.20
2022-07-31T07:36:24.172Z,1.70
2022-07-31T07:39:01.907Z,2.00
2022-07-31T07:41:29.340Z,1.90
2022-07-31T07:43:56.097Z,1.60
2022-07-31T07:46:26.121Z,3.30
2022-07-31T07:48:57.480Z,1.80
2022-07-31T07:51:38.555Z,2.20
2022-07-31T07:55:00.325Z,2.20
2022-07-31T07:57:59.476Z,2.40
2022-07-31T08:00:44.927Z,2.00
2022-07-31T08:03:48.429Z,2.50
2022-07-31T08:05:58.516Z,2.50
2022-07-31T08:08:25.393Z,2.40
2022-07-31T08:11:21.063Z,2.20
2022-07-31T08:14:05.320Z,1.90
2022-07-31T08:16:32.660Z,2.20
2022-07-31T08:19:01.721Z,1.80
2022-07-31T08:21:29.507Z,2.10
2022-07-31T08:23:56.453Z,1.90
2022-07-31T08:26:23.154Z,2.00
2022-07-31T08:28:54.941Z,1.80
2022-07-31T08:31:23.338Z,1.70
2022-07-31T08:34:07.513Z,2.10
2022-07-31T08:36:34.673Z,1.60
2022-07-31T08:39:03.688Z,1.80
2022-07-31T08:41:46.111Z,1.60
2022-07-31T08:44:12.968Z,1.70
2022-07-31T08:46:40.395Z,1.60
2022-07-31T08:49:09.657Z,1.90
2022-07-31T08:51:51.597Z,1.80
2022-07-31T08:54:22.226Z,1.90
2022-07-31T08:56:52.502Z,1.60
2022-07-31T08:59:19.984Z,1.80
2022-07-31T09:01:47.417Z,1.80
2022-07-31T09:04:14.183Z,2.00
2022-07-31T09:06:41.879Z,2.50
2022-07-31T09:09:08.695Z,1.90
2022-07-31T09:11:35.570Z,1.80
2022-07-31T09:14:27.915Z,1.70
2022-07-31T09:16:55.033Z,1.70
2022-07-31T09:19:51.167Z,3.00
2022-07-31T09:22:24.178Z,2.00
2022-07-31T09:24:51.112Z,1.70
2022-07-31T09:27:18.091Z,1.90
2022-07-31T09:29:46.808Z,2.10
2022-07-31T09:32:24.543Z,1.90
2022-07-31T09:37:40.181Z,2.10
2022-07-31T09:40:34.855Z,1.90
2022-07-31T09:43:24.774Z,1.60
2022-07-31T09:45:57.949Z,2.30
2022-07-31T09:48:26.770Z,2.40
2022-07-31T09:51:00.329Z,1.70
2022-07-31T09:53:45.439Z,1.60
2022-07-31T09:56:35.378Z,2.20
2022-07-31T09:59:02.912Z,1.90
2022-07-31T10:01:29.979Z,2.20
2022-07-31T10:03:58.951Z,1.60
2022-07-31T10:06:26.192Z,2.20
2022-07-31T10:08:52.931Z,1.80
2022-07-31T10:11:25.881Z,2.00
2022-07-31T10:14:17.948Z,1.90
2022-07-31T10:16:44.828Z,2.10
2022-07-31T10:19:37.567Z,1.80
2022-07-31T10:22:22.892Z,1.70
2022-07-31T10:24:51.490Z,2.10
2022-07-31T10:27:19.361Z,1.90
2022-07-31T10:29:51.574Z,2.00
2022-07-31T10:32:18.583Z,2.00
2022-07-31T10:35:11.975Z,1.90
2022-07-31T10:38:38.440Z,2.10
2022-07-31T10:41:38.518Z,2.20
2022-07-31T10:44:23.448Z,1.90
2022-07-31T10:46:59.204Z,2.00
2022-07-31T10:49:40.355Z,2.00
2022-07-31T10:52:37.212Z,2.30
2022-07-31T10:55:25.762Z,2.10
2022-07-31T10:58:17.340Z,1.80
2022-07-31T11:01:08.771Z,1.70
2022-07-31T11:03:49.633Z,1.80
2022-07-31T11:06:17.501Z,2.10
2022-07-31T11:09:21.077Z,2.20
2022-07-31T11:11:55.273Z,2.10
2022-07-31T11:14:41.852Z,1.70
2022-07-31T11:18:23.519Z,1.90
2022-07-31T11:20:39.583Z,2.10
2022-07-31T11:23:07.119Z,1.80
2022-07-31T11:25:37.392Z,2.30
2022-07-31T11:28:13.422Z,1.50
2022-07-31T11:30:52.908Z,2.00
2022-07-31T11:33:43.744Z,2.20
2022-07-31T11:36:13.477Z,2.50
2022-07-31T11:38:41.833Z,1.60
2022-07-31T11:41:08.776Z,2.10
2022-07-31T11:43:37.845Z,2.00
2022-07-31T11:46:05.078Z,1.90
2022-07-31T11:48:42.204Z,2.30
2022-07-31T11:51:17.454Z,1.90
2022-07-31T11:53:44.248Z,2.10
2022-07-31T11:56:11.087Z,1.80
2022-07-31T11:58:38.798Z,2.00
2022-07-31T12:01:05.627Z,2.30
2022-07-31T12:03:38.855Z,1.90
2022-07-31T12:06:06.693Z,1.70
2022-07-31T12:10:02.769Z,2.60
2022-07-31T12:12:11.819Z,2.70
2022-07-31T12:14:39.599Z,2.20
2022-07-31T12:17:07.159Z,2.30
2022-07-31T12:19:38.681Z,2.00
2022-07-31T12:22:18.258Z,3.10
2022-07-31T12:24:45.180Z,3.00
2022-07-31T12:27:15.746Z,2.20
2022-07-31T12:29:42.821Z,2.30
2022-07-31T12:32:09.630Z,2.20
2022-07-31T12:34:38.411Z,3.10
2022-07-31T12:37:12.533Z,2.50
2022-07-31T12:39:59.682Z,2.80
2022-07-31T12:42:40.817Z,2.10
2022-07-31T12:45:19.322Z,2.10
2022-07-31T12:47:51.244Z,1.90
2022-07-31T12:50:20.532Z,2.30
2022-07-31T12:52:47.291Z,3.50
2022-07-31T12:55:17.232Z,2.50
2022-07-31T12:57:51.361Z,2.40
2022-07-31T13:00:22.494Z,2.30
2022-07-31T13:02:50.501Z,2.10
2022-07-31T13:05:17.423Z,2.30
2022-07-31T13:07:44.238Z,2.90
2022-07-31T13:10:19.868Z,2.50
2022-07-31T13:12:52.047Z,2.50
2022-07-31T13:15:20.725Z,2.80
2022-07-31T13:17:50.373Z,2.10
2022-07-31T13:20:18.048Z,2.20
2022-07-31T13:22:44.863Z,2.00
2022-07-31T13:25:11.736Z,2.10
2022-07-31T13:27:38.610Z,2.20
2022-07-31T13:30:05.935Z,2.40
2022-07-31T13:32:32.801Z,2.70
2022-07-31T13:35:24.001Z,2.30
2022-07-31T13:37:46.957Z,3.50
2022-07-31T13:40:14.139Z,2.40
2022-07-31T13:42:40.890Z,2.40
2022-07-31T13:45:08.755Z,2.80
2022-07-31T13:47:51.703Z,3.60
2022-07-31T13:50:19.438Z,5.50
2022-07-31T13:52:46.237Z,3.90
2022-07-31T13:55:13.003Z,3.60
2022-07-31T13:57:39.775Z,2.70
2022-07-31T14:00:07.589Z,2.20
2022-07-31T14:02:34.508Z,3.10
2022-07-31T14:05:01.422Z,2.30
2022-07-31T14:07:45.698Z,2.50
2022-07-31T14:10:19.865Z,2.40
2022-07-31T14:12:47.964Z,2.60
2022-07-31T14:15:14.792Z,2.80
2022-07-31T14:17:41.550Z,2.20
2022-07-31T14:20:09.040Z,2.20
2022-07-31T14:22:35.830Z,2.40
2022-07-31T14:25:02.634Z,2.40
2022-07-31T14:27:29.834Z,3.30
2022-07-31T14:29:56.875Z,2.90
2022-07-31T14:32:25.106Z,2.70
2022-07-31T14:34:52.195Z,3.20
2022-07-31T14:37:20.045Z,2.50
2022-07-31T14:39:46.890Z,2.60
2022-07-31T14:42:13.762Z,2.90
2022-07-31T14:44:42.134Z,2.80
2022-07-31T14:47:10.250Z,3.50
2022-07-31T14:50:08.373Z,2.70
2022-07-31T14:52:23.978Z,3.30
2022-07-31T14:54:50.775Z,2.30
2022-07-31T14:57:20.034Z,2.60
2022-07-31T14:59:50.323Z,3.60
2022-07-31T15:02:22.184Z,3.20
2022-07-31T15:04:50.700Z,2.90
2022-07-31T15:07:34.762Z,2.40
2022-07-31T15:10:04.396Z,2.60
2022-07-31T15:12:31.225Z,2.30
2022-07-31T15:14:57.963Z,3.20
2022-07-31T15:17:24.892Z,2.80
2022-07-31T15:19:51.709Z,2.80
2022-07-31T15:22:19.439Z,2.40
2022-07-31T15:24:49.122Z,2.50
2022-07-31T15:27:19.876Z,2.60
2022-07-31T15:30:00.561Z,2.70
2022-07-31T15:32:37.357Z,3.40
2022-07-31T15:35:05.374Z,2.80
2022-07-31T15:37:39.592Z,2.00
2022-07-31T15:40:08.358Z,2.30
2022-07-31T15:42:38.416Z,2.70
2022-07-31T15:45:06.735Z,3.00
2022-07-31T15:47:33.472Z,2.40
2022-07-31T15:50:00.461Z,2.30
2022-07-31T15:52:27.253Z,2.40
2022-07-31T15:54:54.038Z,2.60
2022-07-31T15:57:21.683Z,2.50
2022-07-31T15:59:49.568Z,2.60
2022-07-31T16:02:16.612Z,2.10
2022-07-31T16:04:51.968Z,2.40
2022-07-31T16:08:29.337Z,2.30
2022-07-31T16:10:16.808Z,2.50
2022-07-31T16:12:45.349Z,3.50
2022-07-31T16:15:12.759Z,3.30
2022-07-31T16:17:40.080Z,2.70
2022-07-31T16:20:25.735Z,2.30
2022-07-31T16:22:58.470Z,2.60
2022-07-31T16:25:25.809Z,2.20
2022-07-31T16:27:52.705Z,2.60
2022-07-31T16:30:19.676Z,2.60
2022-07-31T16:32:46.458Z,2.40
2022-07-31T16:35:13.328Z,2.50
2022-07-31T16:37:50.195Z,3.40
2022-07-31T16:40:28.509Z,2.60
2022-07-31T16:43:03.030Z,2.70
2022-07-31T16:45:48.836Z,3.10
2022-07-31T16:48:15.608Z,2.40
2022-07-31T16:50:42.310Z,2.70
2022-07-31T16:53:09.110Z,2.90
2022-07-31T16:55:59.764Z,2.50
2022-07-31T16:58:27.299Z,2.80
2022-07-31T17:00:54.105Z,3.10
2022-07-31T17:04:02.131Z,2.30
2022-07-31T17:06:10.527Z,3.00
2022-07-31T17:08:38.289Z,3.20
2022-07-31T17:11:05.565Z,2.80
2022-07-31T17:13:32.529Z,2.40
2022-07-31T17:15:59.274Z,2.50
2022-07-31T17:18:26.157Z,2.60
2022-07-31T17:20:56.959Z,2.80
2022-07-31T17:23:42.826Z,2.90
2022-07-31T17:26:21.115Z,3.00
2022-07-31T17:28:51.940Z,2.20
2022-07-31T17:31:19.094Z,2.70
2022-07-31T17:33:58.249Z,2.70
2022-07-31T17:36:26.961Z,3.00
2022-07-31T17:38:53.765Z,2.70
2022-07-31T17:41:25.465Z,2.50
2022-07-31T17:43:54.288Z,3.10
2022-07-31T17:46:29.948Z,2.30
2022-07-31T17:49:09.095Z,3.10
2022-07-31T17:51:35.828Z,2.90
2022-07-31T17:54:02.757Z,2.30
2022-07-31T17:56:29.502Z,2.90
2022-07-31T17:59:03.720Z,2.60
2022-07-31T18:01:30.795Z,2.50
2022-07-31T18:03:57.661Z,2.60
2022-07-31T18:06:24.483Z,2.50
2022-07-31T18:08:51.418Z,3.00
2022-07-31T18:11:18.246Z,2.90
2022-07-31T18:13:48.096Z,3.00
2022-07-31T18:16:15.666Z,2.80
2022-07-31T18:18:42.433Z,3.40
2022-07-31T18:21:09.421Z,3.30
2022-07-31T18:23:36.192Z,2.70
2022-07-31T18:26:03.974Z,2.50
2022-07-31T18:28:32.052Z,2.90
2022-07-31T18:31:01.802Z,2.80
2022-07-31T18:33:28.633Z,2.70
2022-07-31T18:35:55.387Z,2.70
2022-07-31T18:38:22.224Z,3.10
2022-07-31T18:40:49.143Z,3.10
2022-07-31T18:43:16.024Z,2.70
2022-07-31T18:45:43.164Z,3.20
2022-07-31T18:48:10.078Z,2.90
2022-07-31T18:51:01.208Z,3.10
2022-07-31T18:53:23.768Z,2.90
2022-07-31T18:55:50.635Z,3.00
2022-07-31T18:58:17.453Z,3.10
2022-07-31T19:00:44.346Z,2.80
2022-07-31T19:03:11.320Z,2.70
2022-07-31T19:05:38.108Z,2.60
2022-07-31T19:08:05.637Z,2.70
2022-07-31T19:10:32.475Z,2.40
2022-07-31T19:12:59.609Z,2.50
2022-07-31T19:15:26.424Z,2.50
2022-07-31T19:17:57.712Z,2.90
2022-07-31T19:20:56.543Z,3.60
2022-07-31T19:23:14.166Z,2.50
2022-07-31T19:25:55.717Z,3.20
2022-07-31T19:28:30.913Z,3.20
2022-07-31T19:30:57.763Z,2.70
2022-07-31T19:33:24.843Z,2.60
2022-07-31T19:35:58.482Z,2.80
2022-07-31T19:38:28.428Z,2.80
2022-07-31T19:40:55.362Z,2.80
2022-07-31T19:43:22.213Z,3.10
2022-07-31T19:46:10.840Z,2.70
2022-07-31T19:48:36.666Z,2.80
2022-07-31T19:51:04.331Z,3.20
2022-07-31T19:53:31.290Z,3.10
2022-07-31T19:55:58.213Z,2.80
2022-07-31T19:58:25.088Z,2.60
2022-07-31T20:00:51.898Z,2.50
2022-07-31T20:03:18.781Z,2.90
2022-07-31T20:05:45.684Z,3.00
2022-07-31T20:08:12.432Z,3.00
2022-07-31T20:10:39.195Z,2.90
2022-07-31T20:13:06.009Z,2.90
2022-07-31T20:15:52.345Z,2.60
2022-07-31T20:18:29.810Z,2.80
2022-07-31T20:20:58.529Z,2.80
2022-07-31T20:23:26.292Z,3.20
2022-07-31T20:25:53.133Z,2.90
2022-07-31T20:28:19.932Z,3.10
2022-07-31T20:30:46.746Z,2.80
2022-07-31T20:33:13.658Z,2.80
2022-07-31T20:35:49.153Z,2.50
2022-07-31T20:38:20.764Z,2.90
2022-07-31T20:40:53.642Z,2.80
2022-07-31T20:43:26.410Z,3.20
2022-07-31T20:45:53.888Z,2.80
2022-07-31T20:48:24.154Z,2.90
2022-07-31T20:50:51.496Z,2.80
2022-07-31T20:53:19.345Z,2.60
2022-07-31T20:55:49.184Z,2.90
2022-07-31T20:58:20.135Z,3.10
2022-07-31T21:00:47.713Z,3.50
2022-07-31T21:03:15.105Z,3.30
2022-07-31T21:05:42.007Z,2.90
2022-07-31T21:08:08.836Z,3.50
2022-07-31T21:10:36.070Z,3.50
2022-07-31T21:13:03.047Z,3.30
2022-07-31T21:15:42.689Z,3.40
2022-07-31T21:18:12.780Z,2.80
2022-07-31T21:20:50.807Z,3.00
2022-07-31T21:23:19.551Z,2.60
2022-07-31T21:25:46.609Z,3.40
2022-07-31T21:28:13.527Z,3.00
2022-07-31T21:30:40.531Z,3.30
2022-07-31T21:33:07.671Z,3.10
2022-07-31T21:35:37.138Z,3.10
2022-07-31T21:38:04.615Z,3.20
2022-07-31T21:40:34.008Z,3.30
2022-07-31T21:43:01.055Z,3.40
2022-07-31T21:45:36.729Z,3.00
2022-07-31T21:48:16.307Z,3.30
2022-07-31T21:50:44.836Z,3.70
2022-07-31T21:53:12.329Z,2.70
2022-07-31T21:55:39.404Z,2.90
2022-07-31T21:58:06.298Z,2.90
2022-07-31T22:00:34.283Z,2.90
2022-07-31T22:03:02.904Z,3.50
2022-07-31T22:05:48.820Z,3.20
2022-07-31T22:08:15.746Z,3.60
2022-07-31T22:10:42.589Z,3.10
2022-07-31T22:13:09.390Z,3.20
2022-07-31T22:15:58.081Z,3.00
2022-07-31T22:18:23.230Z,3.30
2022-07-31T22:20:53.918Z,2.90
2022-07-31T22:23:20.972Z,3.60
2022-07-31T22:25:49.114Z,3.00
2022-07-31T22:28:17.432Z,2.90
2022-07-31T22:30:44.463Z,2.80
2022-07-31T22:33:11.328Z,3.00
2022-07-31T22:35:38.410Z,2.80
2022-07-31T22:38:05.223Z,2.70
2022-07-31T22:40:32.039Z,2.80
2022-07-31T22:42:59.630Z,3.10
2022-07-31T22:45:29.596Z,2.60
2022-07-31T22:47:56.896Z,3.20
2022-07-31T22:50:23.718Z,3.30
2022-07-31T22:52:50.495Z,3.00
2022-07-31T22:55:17.282Z,3.20
2022-07-31T22:57:44.933Z,3.30
2022-07-31T23:00:13.364Z,3.40
2022-07-31T23:02:40.747Z,3.70
2022-07-31T23:05:08.120Z,2.90
2022-07-31T23:07:34.858Z,3.60
2022-07-31T23:10:01.621Z,3.00
2022-07-31T23:12:28.544Z,3.20
2022-07-31T23:14:56.208Z,2.70
2022-07-31T23:17:23.547Z,3.10
2022-07-31T23:19:53.749Z,3.10
2022-07-31T23:22:33.977Z,2.70
2022-07-31T23:25:02.886Z,3.50
2022-07-31T23:27:29.641Z,2.90
2022-07-31T23:29:56.444Z,3.00
2022-07-31T23:32:23.197Z,2.80
2022-07-31T23:34:49.939Z,2.70
2022-07-31T23:37:16.793Z,3.20
2022-07-31T23:39:43.557Z,2.60
2022-07-31T23:42:29.069Z,2.90
2022-07-31T23:44:55.858Z,3.10
2022-07-31T23:47:24.242Z,2.70
2022-07-31T23:50:11.034Z,3.20
2022-07-31T23:52:37.807Z,3.30
2022-07-31T23:55:05.069Z,2.80
2022-07-31T23:57:34.280Z,2.90
